Time;durP1;ratioP1;P1;durP2;ratioP2;P2;SDS_P1;SDS_P2;PMS_P1;PMS_P2;Temp;Humidity;BMP_temperature;BMP_pressure;BME280_temperature;BME280_humidity;BME280_pressure;Samples;Min_cycle;Max_cycle;Signal;HPM_P1;HPM_P2
2021/06/18 00:01:02;;;;;;;2.28;0.90;;;22.30;47.80;;;;;;4340458;33;20077;-35
2021/06/18 00:03:28;;;;;;;1.05;0.88;;;22.20;47.80;;;;;;4339863;33;20078;-36
2021/06/18 00:05:54;;;;;;;0.70;0.62;;;22.20;47.90;;;;;;4340435;33;20517;-37
2021/06/18 00:08:21;;;;;;;3.60;0.40;;;22.20;48.10;;;;;;4340570;33;20066;-36
2021/06/18 00:10:47;;;;;;;0.52;0.25;;;22.20;48.10;;;;;;4328162;33;20158;-36
2021/06/18 00:13:14;;;;;;;1.95;0.52;;;22.20;48.30;;;;;;4363986;32;20140;-35
2021/06/18 00:15:40;;;;;;;0.57;0.30;;;22.10;48.40;;;;;;4369831;32;20074;-36
2021/06/18 00:18:07;;;;;;;0.17;0.17;;;22.10;48.40;;;;;;4357430;32;20102;-35
2021/06/18 00:20:33;;;;;;;0.82;0.65;;;22.10;48.40;;;;;;4362382;32;20065;-35
2021/06/18 00:23:00;;;;;;;0.85;0.40;;;22.00;48.50;;;;;;4402853;32;20064;-35
2021/06/18 00:25:26;;;;;;;0.30;0.22;;;22.00;48.60;;;;;;4400997;32;20080;-35
2021/06/18 00:27:56;;;;;;;4.05;0.30;;;22.00;48.40;;;;;;4391601;32;20564;-34
2021/06/18 00:30:22;;;;;;;8.80;0.62;;;21.90;48.40;;;;;;4391530;32;20073;-38
2021/06/18 00:32:49;;;;;;;1.25;0.73;;;21.90;48.40;;;;;;4391414;32;20061;-35
2021/06/18 00:35:15;;;;;;;0.40;0.30;;;21.80;48.30;;;;;;4405069;32;20061;-36
2021/06/18 00:37:42;;;;;;;1.30;0.60;;;21.80;48.40;;;;;;4405001;32;20088;-36
2021/06/18 00:40:08;;;;;;;0.22;0.22;;;21.70;48.40;;;;;;4403780;32;20131;-36
2021/06/18 00:42:35;;;;;;;0.50;0.47;;;21.70;48.30;;;;;;4404750;32;20046;-36
2021/06/18 00:45:01;;;;;;;0.30;0.30;;;21.70;47.80;;;;;;4401858;32;20615;-36
2021/06/18 00:47:28;;;;;;;0.40;0.40;;;21.70;47.90;;;;;;4400481;32;20061;-36
2021/06/18 00:49:55;;;;;;;1.95;0.47;;;21.70;47.70;;;;;;4374498;32;20073;-34
2021/06/18 00:52:21;;;;;;;0.93;0.70;;;21.70;47.40;;;;;;4374727;32;20449;-36
2021/06/18 00:54:49;;;;;;;0.40;0.40;;;21.60;47.20;;;;;;4374421;32;20082;-36
2021/06/18 00:57:16;;;;;;;0.32;0.30;;;21.60;47.20;;;;;;4329650;33;20637;-36
2021/06/18 00:59:43;;;;;;;0.93;0.50;;;21.60;47.10;;;;;;4330130;33;20563;-36
2021/06/18 01:02:09;;;;;;;0.43;0.30;;;21.60;47.00;;;;;;4342495;33;20233;-36
2021/06/18 01:04:36;;;;;;;0.90;0.40;;;21.70;46.60;;;;;;4329846;33;20574;-36
2021/06/18 01:07:17;;;;;;;0.95;0.30;;;21.60;46.10;;;;;;4329444;33;20067;-35
2021/06/18 01:10:09;;;;;;;6.65;0.47;;;21.70;46.10;;;;;;4342486;33;20197;-36
2021/06/18 01:12:46;;;;;;;0.90;0.50;;;21.70;45.70;;;;;;4329609;33;20525;-35
2021/06/18 01:15:23;;;;;;;0.82;0.30;;;21.80;45.60;;;;;;4330153;33;20133;-35
2021/06/18 01:18:29;;;;;;;1.73;0.40;;;21.90;45.40;;;;;;4330928;33;20089;-37
2021/06/18 01:21:18;;;;;;;1.35;0.40;;;21.90;45.10;;;;;;4330859;33;20527;-37
2021/06/18 01:24:46;;;;;;;0.60;0.22;;;22.00;45.60;;;;;;4342095;33;20549;-36
2021/06/18 01:27:26;;;;;;;0.40;0.30;;;22.00;44.60;;;;;;4268927;33;20569;-35
2021/06/18 01:30:03;;;;;;;2.35;0.50;;;22.10;44.20;;;;;;4271473;33;20091;-36
2021/06/18 01:32:40;;;;;;;0.68;0.17;;;22.00;43.60;;;;;;4283454;33;20071;-35
2021/06/18 01:35:11;;;;;;;0.57;0.37;;;22.10;43.50;;;;;;4295715;33;20103;-35
2021/06/18 01:37:38;;;;;;;5.45;0.40;;;22.20;43.40;;;;;;4300289;33;20086;-35
2021/06/18 01:40:09;;;;;;;4.43;0.60;;;22.30;43.10;;;;;;4288216;33;20070;-35
2021/06/18 01:42:37;;;;;;;4.12;0.28;;;22.30;42.90;;;;;;4313559;33;20087;-35
2021/06/18 01:45:09;;;;;;;1.12;0.40;;;22.40;42.80;;;;;;4327070;33;20137;-35
2021/06/18 01:47:37;;;;;;;2.05;0.80;;;22.60;42.60;;;;;;4318009;33;20066;-35
2021/06/18 01:50:04;;;;;;;0.65;0.45;;;22.80;42.20;;;;;;4341471;33;20082;-34
2021/06/18 01:52:31;;;;;;;0.45;0.40;;;22.90;41.50;;;;;;4341550;33;20097;-35
2021/06/18 01:54:57;;;;;;;1.10;0.62;;;23.00;41.40;;;;;;4329406;33;20582;-35
2021/06/18 01:57:24;;;;;;;1.20;0.40;;;23.10;40.90;;;;;;4317727;33;20499;-35
2021/06/18 01:59:53;;;;;;;0.62;0.32;;;23.00;40.70;;;;;;4328966;33;20547;-35
2021/06/18 02:02:19;;;;;;;0.20;0.10;;;23.10;40.60;;;;;;4341313;32;20177;-35
2021/06/18 02:04:46;;;;;;;1.58;0.30;;;23.10;40.70;;;;;;4389433;32;20077;-35
2021/06/18 02:07:12;;;;;;;0.73;0.47;;;23.20;40.60;;;;;;4389461;32;20077;-35
2021/06/18 02:09:39;;;;;;;1.20;0.43;;;23.20;40.20;;;;;;4403684;32;20064;-35
2021/06/18 02:12:06;;;;;;;0.40;0.30;;;23.20;40.00;;;;;;4389410;32;20061;-36
2021/06/18 02:14:33;;;;;;;0.20;0.20;;;23.20;40.10;;;;;;4403504;32;20465;-36
2021/06/18 02:17:04;;;;;;;2.40;0.30;;;23.30;40.00;;;;;;4389671;32;20145;-35
2021/06/18 02:19:33;;;;;;;0.98;0.30;;;23.40;39.70;;;;;;4389678;32;20062;-36
2021/06/18 02:21:59;;;;;;;0.73;0.40;;;23.40;39.50;;;;;;4403960;32;20057;-35
2021/06/18 02:24:28;;;;;;;0.40;0.40;;;23.40;39.50;;;;;;4389628;32;20085;-36
2021/06/18 02:26:55;;;;;;;0.75;0.40;;;23.30;39.30;;;;;;4389607;32;20144;-36
2021/06/18 02:29:21;;;;;;;1.92;0.20;;;23.20;39.10;;;;;;4389167;32;20065;-36
2021/06/18 02:31:48;;;;;;;0.30;0.30;;;23.20;39.90;;;;;;4389130;32;20069;-36
2021/06/18 02:34:15;;;;;;;2.00;0.32;;;23.20;39.70;;;;;;4376482;32;20046;-37
2021/06/18 02:36:42;;;;;;;4.70;0.30;;;23.30;40.10;;;;;;4389372;32;20519;-36
2021/06/18 02:39:10;;;;;;;3.30;1.05;;;23.30;39.10;;;;;;4403142;32;20062;-36
2021/06/18 02:41:37;;;;;;;0.22;0.20;;;23.40;39.40;;;;;;4403383;32;20422;-36
2021/06/18 02:44:04;;;;;;;0.98;0.30;;;23.50;39.30;;;;;;4389064;32;20120;-36
2021/06/18 02:47:05;;;;;;;1.30;0.43;;;23.50;38.80;;;;;;4389186;32;20550;-36
2021/06/18 02:49:52;;;;;;;1.95;0.28;;;23.60;38.80;;;;;;4388000;32;20128;-35
2021/06/18 02:52:53;;;;;;;0.50;0.30;;;23.90;38.10;;;;;;4374361;32;20073;-36
2021/06/18 02:55:24;;;;;;;1.27;0.35;;;23.90;37.30;;;;;;4375185;32;20081;-36
2021/06/18 02:58:04;;;;;;;0.10;0.10;;;24.00;37.20;;;;;;4386682;32;20533;-36
2021/06/18 03:00:31;;;;;;;0.60;0.30;;;24.00;36.60;;;;;;4386594;32;20442;-37
2021/06/18 03:02:59;;;;;;;2.50;0.60;;;24.00;36.60;;;;;;4374610;32;20072;-36
2021/06/18 03:05:27;;;;;;;0.45;0.30;;;24.00;36.90;;;;;;4386708;32;20058;-36
2021/06/18 03:08:04;;;;;;;5.12;0.93;;;23.90;37.00;;;;;;4373781;32;20145;-35
2021/06/18 03:10:41;;;;;;;0.40;0.30;;;24.00;36.90;;;;;;4387875;32;20243;-36
2021/06/18 03:13:15;;;;;;;1.48;0.47;;;24.20;36.60;;;;;;4388291;32;20077;-36
2021/06/18 03:15:44;;;;;;;5.30;0.30;;;24.20;36.50;;;;;;4386509;32;20522;-35
2021/06/18 03:18:12;;;;;;;3.40;0.43;;;24.30;36.20;;;;;;4388172;32;20050;-35
2021/06/18 03:20:39;;;;;;;0.25;0.20;;;24.30;36.20;;;;;;4386220;32;20053;-36
2021/06/18 03:23:12;;;;;;;0.10;0.10;;;24.30;36.40;;;;;;4373966;32;20166;-35
2021/06/18 03:25:38;;;;;;;0.32;0.30;;;24.30;36.40;;;;;;4387870;32;20087;-36
2021/06/18 03:28:05;;;;;;;2.08;0.70;;;24.30;36.10;;;;;;4387594;32;20197;-35
2021/06/18 03:30:33;;;;;;;0.35;0.30;;;24.30;35.70;;;;;;4386493;32;20068;-35
2021/06/18 03:33:00;;;;;;;0.30;0.30;;;24.10;35.00;;;;;;4386491;32;20058;-36
2021/06/18 03:35:27;;;;;;;0.85;0.30;;;24.00;35.10;;;;;;4386183;32;20177;-35
2021/06/18 03:37:53;;;;;;;0.90;0.60;;;24.00;35.80;;;;;;4387596;32;20077;-36
2021/06/18 03:40:20;;;;;;;1.50;0.30;;;24.00;34.90;;;;;;4386297;32;20170;-36
2021/06/18 03:42:51;;;;;;;3.22;0.40;;;24.00;34.50;;;;;;4385875;32;20069;-36
2021/06/18 03:45:18;;;;;;;0.25;0.20;;;24.00;34.00;;;;;;4373381;32;20090;-36
2021/06/18 03:47:45;;;;;;;0.57;0.40;;;23.90;33.70;;;;;;4376166;32;20121;-37
2021/06/18 03:50:14;;;;;;;1.65;0.20;;;23.90;33.60;;;;;;4388651;32;20088;-37
2021/06/18 03:52:41;;;;;;;0.43;0.20;;;23.80;33.70;;;;;;4388773;32;20142;-36
2021/06/18 03:55:09;;;;;;;0.17;0.17;;;23.80;33.40;;;;;;4388222;32;20477;-36
2021/06/18 03:57:35;;;;;;;0.43;0.20;;;23.90;33.60;;;;;;4402363;32;20145;-35
2021/06/18 04:00:05;;;;;;;0.10;0.10;;;23.80;33.00;;;;;;4404218;32;20076;-36
2021/06/18 04:02:31;;;;;;;3.40;0.28;;;23.80;33.30;;;;;;4391750;32;20069;-36
2021/06/18 04:04:59;;;;;;;0.28;0.10;;;23.70;32.90;;;;;;4405280;32;20073;-36
2021/06/18 04:07:25;;;;;;;2.10;0.30;;;23.80;33.40;;;;;;4388648;32;20503;-37
2021/06/18 04:09:52;;;;;;;5.37;0.45;;;24.00;34.00;;;;;;4376386;32;20131;-35
2021/06/18 04:12:18;;;;;;;0.25;0.25;;;24.10;32.90;;;;;;4389180;32;20115;-36
2021/06/18 04:14:45;;;;;;;1.10;0.40;;;24.20;32.60;;;;;;4388573;32;20157;-36
2021/06/18 04:17:12;;;;;;;0.65;0.20;;;24.10;32.60;;;;;;4388865;32;20068;-37
2021/06/18 04:19:39;;;;;;;3.35;0.40;;;24.20;32.60;;;;;;4389904;32;20077;-36
2021/06/18 04:22:06;;;;;;;0.20;0.20;;;24.20;32.50;;;;;;4390488;32;20510;-37
2021/06/18 04:24:33;;;;;;;0.20;0.20;;;24.40;32.80;;;;;;4390201;32;20512;-37
2021/06/18 04:27:01;;;;;;;0.40;0.15;;;24.60;32.30;;;;;;4389825;32;20518;-37
2021/06/18 04:29:27;;;;;;;2.72;0.40;;;24.70;32.20;;;;;;4390271;32;20195;-37
2021/06/18 04:31:54;;;;;;;0.70;0.35;;;24.80;31.30;;;;;;4388233;32;20537;-35
2021/06/18 04:34:20;;;;;;;2.75;0.40;;;24.60;30.90;;;;;;4388575;32;20057;-37
2021/06/18 04:36:47;;;;;;;0.65;0.20;;;24.50;31.30;;;;;;4390125;32;20498;-36
2021/06/18 04:39:13;;;;;;;5.07;0.37;;;24.50;31.60;;;;;;4388835;32;20509;-36
2021/06/18 04:41:40;;;;;;;0.95;0.30;;;24.40;31.30;;;;;;4388610;32;20134;-36
2021/06/18 04:44:06;;;;;;;0.20;0.20;;;24.40;31.50;;;;;;4389683;32;20062;-37
2021/06/18 04:46:33;;;;;;;0.28;0.20;;;24.40;31.50;;;;;;4389842;32;20065;-36
2021/06/18 04:49:00;;;;;;;0.20;0.13;;;24.60;31.80;;;;;;4377807;32;20166;-37
2021/06/18 04:51:26;;;;;;;0.68;0.20;;;24.70;31.10;;;;;;4374253;32;20100;-36
2021/06/18 04:53:53;;;;;;;1.98;0.17;;;24.90;31.10;;;;;;4373097;32;20062;-37
2021/06/18 04:56:20;;;;;;;0.30;0.22;;;25.00;30.90;;;;;;4374263;32;20514;-35
2021/06/18 04:58:46;;;;;;;0.20;0.20;;;24.90;30.20;;;;;;4373258;32;20070;-35
2021/06/18 05:01:13;;;;;;;0.20;0.20;;;24.90;30.70;;;;;;4374589;32;20066;-36
2021/06/18 05:03:39;;;;;;;0.57;0.20;;;24.90;30.70;;;;;;4374727;32;20164;-36
2021/06/18 05:06:06;;;;;;;0.20;0.20;;;25.00;30.70;;;;;;4377573;32;20074;-37
2021/06/18 05:08:32;;;;;;;0.20;0.20;;;25.10;30.50;;;;;;4387874;32;20077;-38
2021/06/18 05:10:58;;;;;;;0.55;0.20;;;25.30;30.40;;;;;;4388899;32;20061;-36
2021/06/18 05:13:25;;;;;;;0.50;0.20;;;25.40;30.40;;;;;;4387462;32;20582;-37
2021/06/18 05:15:51;;;;;;;1.37;0.20;;;25.40;30.00;;;;;;4387768;32;20069;-38
2021/06/18 05:18:18;;;;;;;5.57;0.30;;;25.40;30.00;;;;;;4389149;32;20089;-41
2021/06/18 05:20:44;;;;;;;1.30;0.30;;;25.50;30.60;;;;;;4389141;32;20067;-36
2021/06/18 05:23:11;;;;;;;0.10;0.10;;;25.50;30.20;;;;;;4389293;32;20062;-35
2021/06/18 05:25:37;;;;;;;1.02;0.30;;;25.60;30.30;;;;;;4389271;32;20078;-36
2021/06/18 05:28:04;;;;;;;0.10;0.10;;;25.50;30.00;;;;;;4388989;32;20066;-37
2021/06/18 05:30:30;;;;;;;1.45;0.22;;;25.50;30.20;;;;;;4388952;32;20481;-38
2021/06/18 05:32:57;;;;;;;1.75;0.35;;;25.60;30.30;;;;;;4387390;32;20065;-38
2021/06/18 05:35:23;;;;;;;1.23;0.25;;;25.70;30.00;;;;;;4388878;32;20050;-37
2021/06/18 05:37:53;;;;;;;1.10;0.20;;;25.80;30.00;;;;;;4387419;32;20166;-38
2021/06/18 05:40:19;;;;;;;4.82;0.40;;;25.80;30.20;;;;;;4343919;32;20134;-37
2021/06/18 05:42:46;;;;;;;4.32;0.15;;;25.80;30.00;;;;;;4356197;32;20055;-37
2021/06/18 05:45:13;;;;;;;3.72;0.60;;;25.70;30.00;;;;;;4356457;32;20063;-37
2021/06/18 05:47:40;;;;;;;0.68;0.10;;;25.80;30.40;;;;;;4359514;32;20062;-36
2021/06/18 05:50:07;;;;;;;2.40;0.30;;;25.80;30.30;;;;;;4371370;32;20062;-38
2021/06/18 05:52:33;;;;;;;0.30;0.13;;;25.80;30.60;;;;;;4358497;32;20155;-37
2021/06/18 05:55:00;;;;;;;0.22;0.10;;;25.80;30.90;;;;;;4358912;32;20530;-37
2021/06/18 05:57:27;;;;;;;0.30;0.30;;;25.90;30.60;;;;;;4370870;32;20101;-38
2021/06/18 05:59:53;;;;;;;0.30;0.20;;;26.00;31.00;;;;;;4358661;32;20157;-37
2021/06/18 06:02:19;;;;;;;0.10;0.10;;;26.00;30.40;;;;;;4371528;32;20149;-36
2021/06/18 06:04:46;;;;;;;0.30;0.20;;;26.00;30.30;;;;;;4370838;32;20143;-37
2021/06/18 06:07:12;;;;;;;0.17;0.15;;;26.10;30.10;;;;;;4370886;32;20076;-38
2021/06/18 06:09:39;;;;;;;0.20;0.20;;;26.20;29.80;;;;;;4370862;32;20063;-38
2021/06/18 06:12:06;;;;;;;2.05;0.20;;;26.10;30.20;;;;;;4361004;32;20065;-43
2021/06/18 06:14:32;;;;;;;1.45;0.30;;;26.00;30.30;;;;;;4358822;32;20151;-37
2021/06/18 06:16:59;;;;;;;0.60;0.20;;;25.80;30.00;;;;;;4357138;32;20069;-37
2021/06/18 06:19:25;;;;;;;3.55;0.30;;;25.70;30.40;;;;;;4358605;32;20070;-38
2021/06/18 06:21:51;;;;;;;0.98;0.20;;;25.90;30.90;;;;;;4358647;32;20074;-38
2021/06/18 06:24:18;;;;;;;1.62;0.40;;;25.90;29.70;;;;;;4357392;32;20158;-37
2021/06/18 06:26:44;;;;;;;3.90;0.55;;;25.80;29.80;;;;;;4358381;32;20078;-35
2021/06/18 06:29:11;;;;;;;0.65;0.30;;;25.80;30.10;;;;;;4358186;32;20083;-36
2021/06/18 06:31:39;;;;;;;0.50;0.28;;;26.00;30.10;;;;;;4358509;32;20108;-37
2021/06/18 06:34:06;;;;;;;1.58;0.30;;;26.10;29.80;;;;;;4358642;32;20059;-36
2021/06/18 06:36:32;;;;;;;0.37;0.32;;;26.40;30.10;;;;;;4340444;33;20101;-37
2021/06/18 06:38:59;;;;;;;0.57;0.25;;;26.30;29.70;;;;;;4340468;33;20685;-37
2021/06/18 06:41:25;;;;;;;1.98;0.30;;;26.30;29.90;;;;;;4340608;33;20106;-37
2021/06/18 06:43:52;;;;;;;3.53;0.47;;;26.00;29.40;;;;;;4328505;33;20171;-38
2021/06/18 06:46:22;;;;;;;0.85;0.20;;;25.70;29.00;;;;;;4340304;33;20070;-39
2021/06/18 06:48:49;;;;;;;0.93;0.22;;;25.60;29.30;;;;;;4351011;32;20544;-35
2021/06/18 06:51:16;;;;;;;2.00;0.43;;;25.50;29.10;;;;;;4355164;32;20074;-36
2021/06/18 06:53:43;;;;;;;0.30;0.20;;;25.50;29.20;;;;;;4355987;32;20144;-37
2021/06/18 06:56:10;;;;;;;1.95;0.30;;;25.40;28.20;;;;;;4355440;32;20089;-38
2021/06/18 06:58:37;;;;;;;0.15;0.15;;;25.30;28.70;;;;;;4355710;32;20079;-37
2021/06/18 07:01:04;;;;;;;0.30;0.20;;;25.30;27.70;;;;;;4355457;32;20071;-39
2021/06/18 07:03:30;;;;;;;0.13;0.10;;;25.40;27.70;;;;;;4355023;32;20471;-36
2021/06/18 07:05:57;;;;;;;7.22;0.20;;;25.60;28.20;;;;;;4357312;32;20177;-35
2021/06/18 07:08:25;;;;;;;1.25;0.20;;;25.80;28.40;;;;;;4372185;32;20440;-37
2021/06/18 07:10:53;;;;;;;0.17;0.10;;;25.80;27.00;;;;;;4372611;32;20526;-37
2021/06/18 07:13:20;;;;;;;0.30;0.20;;;26.00;26.80;;;;;;4372715;32;20065;-38
2021/06/18 07:15:47;;;;;;;1.40;0.20;;;26.20;26.90;;;;;;4372909;32;20525;-34
2021/06/18 07:18:14;;;;;;;1.08;0.20;;;26.40;27.30;;;;;;4372540;32;20058;-37
2021/06/18 07:20:40;;;;;;;0.17;0.17;;;26.50;26.70;;;;;;4372398;32;20089;-37
2021/06/18 07:23:08;;;;;;;0.43;0.17;;;26.50;26.50;;;;;;4371063;32;20202;-37
2021/06/18 07:25:36;;;;;;;2.12;0.28;;;26.40;27.20;;;;;;4372840;32;20466;-37
2021/06/18 07:28:05;;;;;;;0.60;0.20;;;26.40;27.20;;;;;;4372471;32;20537;-37
2021/06/18 07:30:32;;;;;;;2.05;0.70;;;26.40;27.00;;;;;;4372814;32;20089;-38
2021/06/18 07:32:59;;;;;;;0.32;0.30;;;26.40;26.70;;;;;;4372710;32;20563;-35
2021/06/18 07:35:25;;;;;;;0.20;0.20;;;26.50;27.30;;;;;;4374085;32;20097;-35
2021/06/18 07:37:52;;;;;;;0.93;0.30;;;26.50;27.40;;;;;;4373606;32;20168;-37
2021/06/18 07:40:19;;;;;;;0.37;0.20;;;26.60;28.10;;;;;;4375215;32;20066;-37
2021/06/18 07:42:45;;;;;;;0.80;0.20;;;26.70;27.80;;;;;;4374213;32;20066;-36
2021/06/18 07:45:13;;;;;;;0.45;0.20;;;26.80;27.90;;;;;;4374985;32;20054;-37
2021/06/18 07:47:40;;;;;;;0.30;0.20;;;26.70;27.60;;;;;;4375413;32;20097;-37
2021/06/18 07:50:10;;;;;;;2.05;0.30;;;26.70;27.70;;;;;;4373945;32;20170;-36
2021/06/18 07:52:36;;;;;;;0.13;0.13;;;26.80;27.50;;;;;;4373937;32;20070;-36
2021/06/18 07:55:06;;;;;;;1.20;0.25;;;27.00;27.70;;;;;;4375409;32;20536;-36
2021/06/18 07:57:32;;;;;;;0.57;0.30;;;27.10;28.00;;;;;;4375371;32;20051;-36
2021/06/18 07:59:59;;;;;;;0.10;0.10;;;27.00;28.30;;;;;;4375514;32;20069;-37
2021/06/18 08:02:25;;;;;;;0.13;0.13;;;26.90;28.50;;;;;;4375511;32;20521;-38
2021/06/18 08:04:52;;;;;;;1.48;0.17;;;26.70;28.50;;;;;;4375061;32;20069;-37
2021/06/18 08:07:19;;;;;;;0.30;0.30;;;26.50;28.60;;;;;;4396494;32;20521;-37
2021/06/18 08:09:46;;;;;;;0.30;0.20;;;26.50;28.60;;;;;;4405279;32;20089;-37
2021/06/18 08:12:12;;;;;;;2.30;0.30;;;26.40;28.40;;;;;;4405599;32;20073;-36
2021/06/18 08:14:39;;;;;;;0.30;0.30;;;26.30;28.40;;;;;;4405359;32;20097;-38
2021/06/18 08:17:05;;;;;;;1.20;0.52;;;26.30;28.80;;;;;;4404863;32;20061;-36
2021/06/18 08:19:32;;;;;;;0.22;0.22;;;26.40;28.90;;;;;;4404690;32;20066;-36
2021/06/18 08:21:58;;;;;;;2.72;0.30;;;26.40;29.50;;;;;;4391420;32;20173;-35
2021/06/18 08:24:25;;;;;;;0.22;0.20;;;26.40;27.80;;;;;;4405099;32;20153;-36
2021/06/18 08:26:52;;;;;;;2.30;0.17;;;26.50;28.00;;;;;;4404820;32;20100;-36
2021/06/18 08:29:18;;;;;;;0.68;0.20;;;26.40;27.80;;;;;;4405510;32;20058;-37
2021/06/18 08:31:44;;;;;;;0.75;0.20;;;26.60;28.10;;;;;;4404950;32;20061;-37
2021/06/18 08:34:11;;;;;;;0.75;0.22;;;26.80;28.00;;;;;;4404713;32;20585;-37
2021/06/18 08:36:39;;;;;;;1.65;0.30;;;27.00;28.10;;;;;;4404944;32;20096;-36
2021/06/18 08:39:07;;;;;;;0.20;0.20;;;26.80;28.00;;;;;;4405291;32;20085;-37
2021/06/18 08:41:33;;;;;;;0.52;0.20;;;26.70;27.60;;;;;;4405246;32;20219;-37
2021/06/18 08:43:59;;;;;;;1.12;0.30;;;26.60;27.70;;;;;;4404874;32;20071;-35
2021/06/18 08:46:28;;;;;;;0.17;0.17;;;26.50;27.40;;;;;;4403876;32;20061;-37
2021/06/18 08:48:55;;;;;;;4.68;0.45;;;26.60;27.60;;;;;;4393416;32;20062;-36
2021/06/18 08:51:22;;;;;;;0.20;0.20;;;26.50;27.60;;;;;;4389436;32;20070;-35
2021/06/18 08:53:49;;;;;;;0.20;0.20;;;26.70;27.60;;;;;;4388399;32;20073;-37
2021/06/18 08:56:15;;;;;;;0.43;0.20;;;26.70;27.50;;;;;;4389077;32;20143;-36
2021/06/18 08:58:42;;;;;;;0.22;0.17;;;26.90;27.30;;;;;;4389126;32;20537;-37
2021/06/18 09:01:08;;;;;;;0.82;0.17;;;26.90;27.00;;;;;;4375321;32;20146;-36
2021/06/18 09:03:43;;;;;;;1.60;0.20;;;27.00;27.10;;;;;;4389631;32;20065;-37
2021/06/18 09:06:19;;;;;;;0.40;0.30;;;27.20;27.60;;;;;;4389087;32;20117;-36
2021/06/18 09:08:45;;;;;;;0.73;0.20;;;27.10;27.50;;;;;;4389675;32;20582;-37
2021/06/18 09:11:12;;;;;;;2.75;0.20;;;26.90;27.20;;;;;;4389416;32;20065;-38
2021/06/18 09:13:39;;;;;;;10.07;0.60;;;27.00;27.20;;;;;;4389212;32;20540;-37
2021/06/18 09:16:06;;;;;;;1.65;0.20;;;26.80;27.00;;;;;;4389559;32;20078;-37
2021/06/18 09:18:37;;;;;;;1.80;0.40;;;26.90;27.10;;;;;;4389387;32;20131;-37
2021/06/18 09:21:03;;;;;;;2.60;0.20;;;27.00;26.80;;;;;;4389198;32;20073;-36
2021/06/18 09:23:36;;;;;;;0.20;0.20;;;27.10;26.80;;;;;;4388622;32;20574;-37
2021/06/18 09:26:35;;;;;;;0.30;0.20;;;27.00;26.70;;;;;;4388869;32;20477;-36
2021/06/18 09:29:18;;;;;;;0.10;0.10;;;27.20;27.10;;;;;;4387215;32;20072;-38
2021/06/18 09:31:56;;;;;;;0.20;0.17;;;27.30;26.50;;;;;;4388651;32;20474;-37
2021/06/18 09:34:39;;;;;;;4.05;0.30;;;27.30;26.40;;;;;;4387788;32;20206;-37
2021/06/18 09:37:22;;;;;;;0.40;0.20;;;27.20;26.30;;;;;;4388994;32;20086;-36
2021/06/18 09:40:15;;;;;;;0.75;0.20;;;27.20;26.50;;;;;;4388487;32;20559;-36
2021/06/18 09:42:52;;;;;;;0.55;0.20;;;27.20;26.00;;;;;;4388771;32;20062;-38
2021/06/18 09:45:24;;;;;;;2.50;0.43;;;27.10;26.30;;;;;;4387404;32;20081;-39
2021/06/18 09:47:51;;;;;;;1.12;0.20;;;27.10;26.30;;;;;;4393467;32;20057;-36
2021/06/18 09:50:27;;;;;;;1.33;0.40;;;27.30;26.40;;;;;;4389949;32;20077;-36
2021/06/18 09:53:14;;;;;;;0.10;0.10;;;27.30;25.80;;;;;;4404320;32;20096;-36
2021/06/18 09:55:46;;;;;;;3.67;0.15;;;27.20;25.90;;;;;;4404013;32;20093;-37
2021/06/18 09:58:12;;;;;;;0.47;0.20;;;27.30;26.30;;;;;;4403143;32;20528;-36
2021/06/18 10:00:39;;;;;;;2.70;0.20;;;27.40;26.00;;;;;;4403720;32;20070;-37
2021/06/18 10:03:10;;;;;;;1.20;0.25;;;27.30;25.90;;;;;;4389576;32;20468;-36
2021/06/18 10:05:39;;;;;;;0.30;0.30;;;27.30;25.40;;;;;;4403494;32;20224;-36
2021/06/18 10:08:06;;;;;;;0.10;0.10;;;27.20;26.00;;;;;;4403449;32;20075;-37
2021/06/18 10:10:35;;;;;;;0.30;0.20;;;27.20;26.50;;;;;;4403212;32;20399;-37
2021/06/18 10:13:02;;;;;;;0.95;0.28;;;27.30;26.60;;;;;;4385473;32;20169;-37
2021/06/18 10:15:31;;;;;;;0.20;0.20;;;27.30;26.20;;;;;;4385543;32;20100;-36
2021/06/18 10:17:58;;;;;;;1.20;0.20;;;27.40;25.80;;;;;;4386078;32;20088;-35
2021/06/18 10:20:30;;;;;;;1.98;0.20;;;27.50;26.00;;;;;;4386169;32;20062;-37
2021/06/18 10:23:12;;;;;;;0.22;0.20;;;27.50;25.60;;;;;;4385721;32;20501;-37
2021/06/18 10:25:58;;;;;;;0.30;0.20;;;27.60;25.70;;;;;;4385834;32;20535;-36
2021/06/18 10:28:29;;;;;;;3.50;0.20;;;27.60;25.90;;;;;;4385660;32;20097;-37
2021/06/18 10:30:57;;;;;;;0.80;0.20;;;27.70;25.60;;;;;;4385542;32;20174;-36
2021/06/18 10:33:26;;;;;;;0.50;0.17;;;27.70;25.70;;;;;;4385767;32;20160;-36
2021/06/18 10:36:25;;;;;;;0.40;0.32;;;27.70;25.90;;;;;;4385743;32;20123;-37
2021/06/18 10:39:15;;;;;;;0.75;0.20;;;27.60;26.00;;;;;;4355458;32;20527;-36
2021/06/18 10:41:53;;;;;;;0.40;0.30;;;27.80;26.30;;;;;;4343554;32;20511;-37
2021/06/18 10:44:38;;;;;;;0.68;0.30;;;27.80;25.30;;;;;;4364789;32;20116;-37
2021/06/18 10:47:30;;;;;;;0.20;0.20;;;27.80;24.50;;;;;;4370722;32;20092;-37
2021/06/18 10:49:57;;;;;;;0.13;0.10;;;27.70;24.90;;;;;;4341113;32;20059;-36
2021/06/18 10:52:25;;;;;;;0.20;0.15;;;27.70;24.40;;;;;;4355834;32;20078;-38
2021/06/18 10:54:54;;;;;;;0.10;0.10;;;27.80;24.80;;;;;;4355614;32;20079;-38
2021/06/18 10:57:27;;;;;;;0.52;0.30;;;27.80;24.20;;;;;;4355967;32;20073;-37
2021/06/18 10:59:59;;;;;;;0.10;0.10;;;27.70;24.60;;;;;;4355311;32;20090;-36
2021/06/18 11:02:26;;;;;;;0.32;0.20;;;27.70;24.80;;;;;;4355817;32;20082;-36
2021/06/18 11:05:29;;;;;;;0.20;0.10;;;27.60;24.60;;;;;;4355178;32;20552;-37
2021/06/18 11:08:27;;;;;;;1.65;0.20;;;27.60;25.10;;;;;;4295996;33;20082;-37
2021/06/18 11:10:58;;;;;;;1.45;0.20;;;27.60;24.80;;;;;;4296158;33;20064;-37
2021/06/18 11:13:24;;;;;;;0.10;0.10;;;27.60;24.40;;;;;;4296650;33;20096;-38
2021/06/18 11:15:51;;;;;;;0.13;0.13;;;27.70;24.70;;;;;;4294069;33;20134;-37
2021/06/18 11:18:27;;;;;;;0.05;0.05;;;27.90;24.50;;;;;;4282027;33;20102;-36
2021/06/18 11:20:55;;;;;;;0.08;0.08;;;28.00;24.60;;;;;;4282007;33;20071;-37
2021/06/18 11:23:32;;;;;;;0.20;0.13;;;28.10;24.80;;;;;;4281689;33;20122;-37
2021/06/18 11:26:02;;;;;;;0.10;0.10;;;28.20;23.40;;;;;;4282181;33;20080;-37
2021/06/18 11:28:34;;;;;;;0.55;0.10;;;28.20;23.90;;;;;;4282265;33;20228;-37
2021/06/18 11:31:16;;;;;;;0.10;0.10;;;28.20;23.80;;;;;;4281868;33;20831;-35
2021/06/18 11:33:53;;;;;;;0.55;0.30;;;28.30;24.10;;;;;;4281862;33;20221;-45
2021/06/18 11:38:51;;;;;;;0.65;0.13;;;28.30;23.70;;;;;;4281486;33;20090;-37
2021/06/18 11:41:23;;;;;;;0.57;0.10;;;28.30;23.60;;;;;;4282017;33;20061;-38
2021/06/18 11:43:51;;;;;;;0.47;0.10;;;28.30;23.80;;;;;;4317759;33;20534;-37
2021/06/18 11:46:22;;;;;;;1.23;0.10;;;28.30;23.90;;;;;;4340234;33;20553;-38
2021/06/18 11:48:49;;;;;;;0.40;0.30;;;28.30;23.80;;;;;;4348627;32;20054;-38
2021/06/18 11:51:23;;;;;;;1.23;0.10;;;28.30;23.40;;;;;;4369534;32;20078;-37
2021/06/18 11:53:49;;;;;;;1.65;0.10;;;28.40;23.80;;;;;;4379072;32;20154;-36
2021/06/18 11:56:16;;;;;;;0.20;0.20;;;28.30;23.60;;;;;;4387415;32;20603;-37
2021/06/18 11:58:44;;;;;;;2.08;0.22;;;28.20;23.60;;;;;;4400064;32;20078;-37
2021/06/18 12:01:16;;;;;;;0.62;0.28;;;28.20;23.60;;;;;;4399871;32;20244;-36
2021/06/18 12:03:45;;;;;;;0.30;0.20;;;28.20;23.80;;;;;;4400237;32;20092;-37
2021/06/18 12:06:29;;;;;;;1.20;0.20;;;28.20;23.80;;;;;;4400287;32;20228;-36
2021/06/18 12:09:15;;;;;;;0.20;0.20;;;28.00;23.70;;;;;;4385697;32;20062;-36
2021/06/18 12:11:47;;;;;;;1.40;0.30;;;28.00;23.50;;;;;;4385749;32;20517;-38
2021/06/18 12:14:16;;;;;;;0.10;0.10;;;27.90;23.70;;;;;;4386602;32;20156;-37
2021/06/18 12:16:45;;;;;;;0.20;0.20;;;28.00;23.70;;;;;;4386851;32;20073;-37
2021/06/18 12:19:30;;;;;;;0.10;0.10;;;27.90;23.80;;;;;;4386979;32;20154;-36
2021/06/18 12:22:13;;;;;;;0.17;0.17;;;27.90;23.60;;;;;;4389213;32;20162;-37
2021/06/18 12:24:41;;;;;;;0.32;0.20;;;27.70;23.80;;;;;;4390117;32;20082;-35
2021/06/18 12:27:22;;;;;;;1.25;0.10;;;27.70;24.00;;;;;;4389748;32;20081;-36
2021/06/18 12:29:57;;;;;;;0.30;0.30;;;27.90;24.20;;;;;;4388288;32;20062;-37
2021/06/18 12:32:29;;;;;;;0.30;0.20;;;28.00;24.30;;;;;;4389960;32;20061;-37
2021/06/18 12:35:00;;;;;;;0.40;0.13;;;28.10;23.80;;;;;;4375964;32;20174;-36
2021/06/18 12:37:30;;;;;;;0.55;0.20;;;28.10;24.10;;;;;;4388448;32;20088;-37
2021/06/18 12:40:05;;;;;;;0.40;0.10;;;28.10;24.20;;;;;;4389803;32;20507;-36
2021/06/18 12:42:49;;;;;;;1.50;0.22;;;28.00;24.70;;;;;;4389504;32;20093;-38
2021/06/18 12:45:19;;;;;;;0.10;0.10;;;28.00;24.50;;;;;;4389705;32;20073;-37
2021/06/18 12:47:47;;;;;;;2.55;0.20;;;27.90;24.10;;;;;;4393581;32;20057;-37
2021/06/18 12:50:32;;;;;;;0.82;0.20;;;27.90;24.20;;;;;;4404626;32;20069;-36
2021/06/18 12:53:01;;;;;;;0.62;0.30;;;27.80;24.00;;;;;;4404469;32;20057;-36
2021/06/18 12:55:36;;;;;;;3.50;0.30;;;27.50;24.00;;;;;;4404887;32;20141;-36
2021/06/18 12:58:12;;;;;;;;;;;27.50;24.40;;;;;;4405003;32;20647;-37
2021/06/18 13:00:41;;;;;;;0.90;0.10;;;27.40;24.30;;;;;;4404891;32;19965;-35
2021/06/18 13:03:09;;;;;;;0.08;0.08;;;27.50;24.80;;;;;;4404430;32;20083;-35
2021/06/18 13:05:35;;;;;;;0.40;0.10;;;27.60;24.50;;;;;;4404546;32;20054;-37